Time;durP1;ratioP1;P1;durP2;ratioP2;P2;SDS_P1;SDS_P2;PMS_P1;PMS_P2;Temp;Humidity;BMP_temperature;BMP_pressure;BME280_temperature;BME280_humidity;BME280_pressure;Samples;Min_cycle;Max_cycle;Signal;HPM_P1;HPM_P2
2022/01/20 00:00:15;;;;;;;4.13;2.80;;;3.70;99.90;;;;;;4912943;29;20183;-74
2022/01/20 00:02:42;;;;;;;5.30;3.47;;;3.70;99.90;;;;;;4915108;29;21026;-75
2022/01/20 00:05:35;;;;;;;4.30;3.30;;;3.70;99.90;;;;;;4915597;29;20436;-74
2022/01/20 00:08:17;;;;;;;3.63;3.33;;;3.70;99.90;;;;;;4915549;29;20437;-74
2022/01/20 00:27:12;;;;;;;3.30;2.93;;;3.60;99.90;;;;;;4915390;29;20481;-75
2022/01/20 00:32:29;;;;;;;3.30;2.60;;;3.60;99.90;;;;;;4915644;29;20517;-74
2022/01/20 00:37:22;;;;;;;3.30;2.43;;;3.60;99.90;;;;;;4915794;29;20414;-75
2022/01/20 00:39:48;;;;;;;5.97;2.77;;;3.60;99.90;;;;;;4914571;29;20728;-75
2022/01/20 00:42:15;;;;;;;2.13;2.00;;;3.60;99.90;;;;;;4915456;29;20451;-75
2022/01/20 00:44:42;;;;;;;2.53;2.33;;;3.60;99.90;;;;;;4915380;29;20484;-75
2022/01/20 00:47:07;;;;;;;2.43;2.33;;;3.60;99.90;;;;;;4915515;29;20411;-74
2022/01/20 00:49:33;;;;;;;3.00;2.60;;;3.50;99.90;;;;;;4915193;29;20440;-74
2022/01/20 00:52:00;;;;;;;3.23;2.73;;;3.50;99.90;;;;;;4915158;29;20194;-74
2022/01/20 00:54:26;;;;;;;4.13;2.77;;;3.50;99.90;;;;;;4915024;29;20915;-75
2022/01/20 00:56:51;;;;;;;2.23;2.07;;;3.50;99.90;;;;;;4915270;29;20466;-75
2022/01/20 00:59:17;;;;;;;4.20;2.40;;;3.60;99.90;;;;;;4915040;29;20458;-75
2022/01/20 05:30:59;;;;;;;3.80;3.43;;;3.40;99.90;;;;;;5802392;23;20466;-75
2022/01/20 05:33:25;;;;;;;4.53;2.90;;;3.40;99.90;;;;;;4928845;29;20463;-74
2022/01/20 05:35:51;;;;;;;3.67;3.37;;;3.40;99.90;;;;;;4933870;29;20972;-73
2022/01/20 05:38:16;;;;;;;4.40;2.40;;;3.30;99.90;;;;;;4936270;29;20387;-74
2022/01/20 05:40:42;;;;;;;2.80;2.43;;;3.40;99.90;;;;;;4932854;29;20204;-74
2022/01/20 05:43:08;;;;;;;2.80;2.60;;;3.30;99.90;;;;;;4919269;29;20175;-74
2022/01/20 05:45:33;;;;;;;3.70;3.40;;;3.40;99.90;;;;;;4915600;29;20249;-74
2022/01/20 05:48:09;;;;;;;5.30;3.13;;;3.40;99.90;;;;;;4917280;29;20622;-73
2022/01/20 05:50:34;;;;;;;3.17;2.70;;;3.40;99.90;;;;;;4916277;29;20233;-74
2022/01/20 05:53:00;;;;;;;4.17;3.83;;;3.30;99.90;;;;;;4914977;29;20456;-74
2022/01/20 05:55:25;;;;;;;4.47;3.97;;;3.30;99.90;;;;;;4916885;29;20243;-75
2022/01/20 05:57:51;;;;;;;4.40;3.57;;;3.40;99.90;;;;;;4915583;29;20202;-75
2022/01/20 06:00:21;;;;;;;3.73;3.30;;;3.30;99.90;;;;;;4915293;29;20587;-75
2022/01/20 06:05:32;;;;;;;3.50;3.20;;;3.40;99.90;;;;;;4917529;29;20392;-74
2022/01/20 06:07:57;;;;;;;2.23;1.87;;;3.30;99.90;;;;;;4915192;29;20420;-74
2022/01/20 06:10:23;;;;;;;3.87;2.90;;;3.40;99.90;;;;;;4916927;29;20500;-73
2022/01/20 06:12:48;;;;;;;3.07;2.77;;;3.30;99.90;;;;;;4914209;29;20224;-74
2022/01/20 06:15:14;;;;;;;3.00;2.30;;;3.30;99.90;;;;;;4910509;29;20618;-73
2022/01/20 06:17:41;;;;;;;2.83;2.63;;;3.30;99.90;;;;;;4915210;29;20175;-73
2022/01/20 06:20:07;;;;;;;2.80;2.60;;;3.30;99.90;;;;;;4916616;29;20234;-73
2022/01/20 06:22:33;;;;;;;9.83;2.77;;;3.30;99.90;;;;;;4915682;29;20500;-74
2022/01/20 06:24:58;;;;;;;2.43;2.17;;;3.30;99.90;;;;;;4909996;29;20496;-74
2022/01/20 06:27:24;;;;;;;2.40;2.20;;;3.30;99.90;;;;;;4916866;29;20181;-73
2022/01/20 06:29:49;;;;;;;3.40;3.10;;;3.40;99.90;;;;;;4910432;29;20312;-73
2022/01/20 06:32:15;;;;;;;3.80;3.50;;;3.40;99.90;;;;;;4912496;29;20301;-74
2022/01/20 06:34:40;;;;;;;3.90;3.10;;;3.40;99.90;;;;;;4914013;29;20245;-74
2022/01/20 06:37:06;;;;;;;6.97;3.50;;;3.40;99.90;;;;;;4916680;29;20170;-75
2022/01/20 06:39:32;;;;;;;7.90;4.73;;;3.40;99.90;;;;;;4915212;29;20193;-74
2022/01/20 06:41:57;;;;;;;5.07;3.53;;;3.40;99.90;;;;;;4917124;29;20222;-75
2022/01/20 06:44:23;;;;;;;4.83;4.30;;;3.40;99.90;;;;;;4914017;29;20192;-72
2022/01/20 06:46:49;;;;;;;3.50;3.20;;;3.40;99.90;;;;;;4914303;29;20261;-75
2022/01/20 06:49:16;;;;;;;8.40;3.40;;;3.40;99.90;;;;;;4916199;29;20210;-74
2022/01/20 06:51:41;;;;;;;5.20;3.87;;;3.40;99.90;;;;;;4915247;29;20516;-75
2022/01/20 06:54:07;;;;;;;8.73;4.20;;;3.40;99.90;;;;;;4915917;29;20497;-73
2022/01/20 06:56:32;;;;;;;7.60;3.50;;;3.40;99.90;;;;;;4912895;29;20190;-74
2022/01/20 06:58:58;;;;;;;4.90;3.60;;;3.30;99.90;;;;;;4916484;29;20174;-74
2022/01/20 07:01:24;;;;;;;7.10;3.83;;;3.30;99.90;;;;;;4911604;29;20202;-73
2022/01/20 07:03:50;;;;;;;3.57;3.27;;;3.20;99.90;;;;;;4915931;29;20893;-74
2022/01/20 07:06:15;;;;;;;3.80;3.40;;;3.20;99.90;;;;;;4914156;29;20188;-73
2022/01/20 07:08:41;;;;;;;4.30;2.87;;;3.10;99.90;;;;;;4914051;29;20217;-74
2022/01/20 07:11:06;;;;;;;4.50;3.17;;;3.00;99.90;;;;;;4914479;29;20656;-74
2022/01/20 07:13:32;;;;;;;4.33;2.70;;;3.00;99.90;;;;;;4915052;29;20280;-75
2022/01/20 07:15:57;;;;;;;8.20;3.00;;;2.90;99.90;;;;;;4913269;29;20235;-74
2022/01/20 07:18:23;;;;;;;2.60;1.97;;;2.90;99.90;;;;;;4909846;29;20186;-73
2022/01/20 07:20:48;;;;;;;3.27;2.20;;;2.90;99.90;;;;;;4914845;29;20630;-74
2022/01/20 07:23:14;;;;;;;7.93;2.70;;;2.80;99.90;;;;;;4911214;29;20253;-75
2022/01/20 07:25:39;;;;;;;3.63;2.17;;;2.80;99.90;;;;;;4915888;29;20242;-75
2022/01/20 07:28:05;;;;;;;3.03;2.60;;;2.80;99.90;;;;;;4913228;29;20188;-74
2022/01/20 07:30:30;;;;;;;2.90;2.50;;;2.70;99.90;;;;;;4907975;29;20213;-75
2022/01/20 07:32:57;;;;;;;6.23;3.37;;;2.70;99.90;;;;;;4907915;29;20229;-74
2022/01/20 07:35:23;;;;;;;4.57;3.10;;;2.70;99.90;;;;;;4915216;29;20179;-73
2022/01/20 07:37:48;;;;;;;2.53;2.30;;;2.70;99.90;;;;;;4915068;29;20482;-75
2022/01/20 07:40:14;;;;;;;4.70;2.80;;;2.70;99.90;;;;;;4910441;29;20191;-76
2022/01/20 07:42:40;;;;;;;3.20;2.77;;;2.70;99.90;;;;;;4915637;29;20233;-75
2022/01/20 07:45:06;;;;;;;5.93;3.17;;;2.70;99.90;;;;;;4911667;29;20860;-74
2022/01/20 07:47:31;;;;;;;9.63;3.53;;;2.80;99.90;;;;;;4925939;29;20188;-75
2022/01/20 07:49:57;;;;;;;4.50;3.00;;;2.80;99.90;;;;;;4920509;29;20660;-75
2022/01/20 07:52:23;;;;;;;7.90;2.83;;;2.90;99.90;;;;;;4914239;29;20216;-76
2022/01/20 07:54:48;;;;;;;4.87;2.97;;;2.90;99.90;;;;;;4913206;29;20648;-74
2022/01/20 07:57:14;;;;;;;6.63;3.20;;;3.00;99.90;;;;;;4915598;29;20321;-75
2022/01/20 07:59:39;;;;;;;10.73;3.70;;;3.10;99.90;;;;;;4913691;29;20198;-76
2022/01/20 08:02:05;;;;;;;8.43;2.90;;;3.20;99.90;;;;;;4913462;29;20262;-73
2022/01/20 08:04:30;;;;;;;5.70;2.27;;;3.30;99.90;;;;;;4914144;29;20306;-75
2022/01/20 08:06:56;;;;;;;17.73;3.60;;;3.40;99.90;;;;;;4913000;29;20190;-75
2022/01/20 08:09:23;;;;;;;6.30;2.47;;;3.50;99.90;;;;;;4914900;29;20221;-75
2022/01/20 08:11:49;;;;;;;5.33;2.27;;;3.50;99.90;;;;;;4910970;29;20198;-75
2022/01/20 08:14:15;;;;;;;8.10;3.17;;;3.60;99.90;;;;;;4913281;29;20427;-75
2022/01/20 08:16:41;;;;;;;7.33;3.20;;;3.70;99.90;;;;;;4911399;29;20864;-75
2022/01/20 08:19:06;;;;;;;8.43;3.37;;;3.90;99.90;;;;;;4914726;29;20211;-75
2022/01/20 08:21:32;;;;;;;4.90;3.17;;;4.00;99.90;;;;;;4912777;29;20218;-75
2022/01/20 08:23:57;;;;;;;5.40;2.90;;;4.10;99.90;;;;;;4911588;29;20614;-75
2022/01/20 08:26:23;;;;;;;10.07;2.80;;;4.10;99.90;;;;;;4913896;29;20187;-72
2022/01/20 08:28:49;;;;;;;3.63;2.60;;;4.00;99.90;;;;;;4911425;29;20183;-73
2022/01/20 08:31:14;;;;;;;9.53;3.30;;;4.10;99.90;;;;;;4910146;29;20215;-74
2022/01/20 08:33:40;;;;;;;4.47;2.80;;;4.00;99.90;;;;;;4911817;29;20660;-75
2022/01/20 08:36:06;;;;;;;12.33;2.80;;;3.90;99.90;;;;;;4914464;29;20185;-75
2022/01/20 08:38:31;;;;;;;10.13;2.70;;;3.90;99.90;;;;;;4912620;29;20183;-76
2022/01/20 08:40:57;;;;;;;6.20;4.00;;;3.90;99.90;;;;;;4910584;29;20479;-76
2022/01/20 08:43:24;;;;;;;8.23;3.47;;;3.90;99.90;;;;;;4911700;29;20575;-79
2022/01/20 08:45:49;;;;;;;10.03;3.90;;;3.90;99.90;;;;;;4905320;29;20205;-75
2022/01/20 08:48:15;;;;;;;6.10;3.07;;;3.90;99.90;;;;;;4912242;29;20418;-75
2022/01/20 08:50:42;;;;;;;8.57;3.47;;;3.90;99.90;;;;;;4913634;29;20221;-75
2022/01/20 08:53:09;;;;;;;8.30;3.30;;;3.90;99.90;;;;;;4913416;29;20808;-76
2022/01/20 08:55:35;;;;;;;5.50;2.77;;;3.80;99.90;;;;;;4910202;29;20424;-75
2022/01/20 08:58:02;;;;;;;4.53;2.87;;;3.90;99.90;;;;;;4914247;29;20423;-75
2022/01/20 09:00:30;;;;;;;4.27;2.87;;;3.90;99.90;;;;;;4911649;29;20452;-75
2022/01/20 09:02:55;;;;;;;11.40;3.20;;;3.90;99.90;;;;;;4913465;29;20418;-75
2022/01/20 09:05:22;;;;;;;7.00;2.50;;;3.90;99.90;;;;;;4911946;29;20423;-77
2022/01/20 09:07:47;;;;;;;6.43;2.87;;;4.00;99.90;;;;;;4911856;29;20325;-75
2022/01/20 09:10:19;;;;;;;13.07;3.30;;;4.10;99.90;;;;;;4912122;29;21054;-76
2022/01/20 09:15:34;;;;;;;13.77;3.33;;;4.20;99.90;;;;;;4911035;29;20591;-74
2022/01/20 09:18:08;;;;;;;10.57;3.10;;;4.30;99.90;;;;;;4913263;29;20531;-75
2022/01/20 09:20:35;;;;;;;9.40;3.57;;;4.30;99.90;;;;;;4914279;29;20674;-75
2022/01/20 09:23:01;;;;;;;4.90;3.53;;;4.40;99.90;;;;;;4911345;29;20446;-75
2022/01/20 09:25:28;;;;;;;8.40;3.67;;;4.40;99.90;;;;;;4914055;29;20396;-74
2022/01/20 09:27:55;;;;;;;10.27;3.23;;;4.40;99.90;;;;;;4911663;29;20442;-74
2022/01/20 09:30:23;;;;;;;12.27;3.23;;;4.40;99.90;;;;;;4908442;29;20450;-75
2022/01/20 09:32:58;;;;;;;3.83;2.77;;;4.40;99.90;;;;;;4904871;29;20582;-74
2022/01/20 09:35:28;;;;;;;7.50;2.93;;;4.50;99.90;;;;;;4913663;29;20399;-72
2022/01/20 09:37:53;;;;;;;8.00;2.97;;;4.50;99.90;;;;;;4913360;29;20396;-74
2022/01/20 09:40:19;;;;;;;6.93;3.30;;;4.50;99.90;;;;;;4909494;29;20452;-75
2022/01/20 09:42:44;;;;;;;7.07;2.70;;;4.50;99.90;;;;;;4913263;29;20278;-74
2022/01/20 09:45:10;;;;;;;6.80;4.30;;;4.40;99.90;;;;;;4907040;29;20543;-75
2022/01/20 09:47:37;;;;;;;5.00;2.23;;;4.50;99.90;;;;;;4913826;29;20186;-74
2022/01/20 09:50:04;;;;;;;6.10;2.90;;;4.40;99.90;;;;;;4910968;29;20578;-78
2022/01/20 09:52:30;;;;;;;6.13;2.70;;;4.40;99.90;;;;;;4911589;29;20451;-76
2022/01/20 09:54:55;;;;;;;6.93;2.97;;;4.40;99.90;;;;;;4910834;29;20451;-74
2022/01/20 09:57:21;;;;;;;6.57;3.40;;;4.40;99.90;;;;;;4913968;29;20183;-75
2022/01/20 09:59:48;;;;;;;16.90;3.20;;;4.50;99.90;;;;;;4914907;29;20192;-74
2022/01/20 10:02:18;;;;;;;14.60;3.43;;;4.50;99.90;;;;;;4914846;29;20241;-74
2022/01/20 10:04:44;;;;;;;6.97;3.10;;;4.50;99.90;;;;;;4916505;29;20385;-73
2022/01/20 10:07:13;;;;;;;15.13;2.50;;;4.60;99.90;;;;;;4915068;29;20801;-75
2022/01/20 10:09:45;;;;;;;9.37;2.93;;;4.60;99.90;;;;;;4915061;29;20221;-74
2022/01/20 10:12:14;;;;;;;8.70;3.53;;;4.60;99.90;;;;;;4914227;29;20472;-73
2022/01/20 10:14:42;;;;;;;13.87;3.70;;;4.60;99.90;;;;;;4913476;29;20439;-74
2022/01/20 10:17:29;;;;;;;13.10;3.40;;;4.60;99.90;;;;;;4915343;29;20444;-75
2022/01/20 10:20:04;;;;;;;6.83;3.43;;;4.60;99.90;;;;;;4917141;29;20429;-75
2022/01/20 10:22:31;;;;;;;6.70;3.47;;;4.60;99.90;;;;;;4914485;29;20450;-76
2022/01/20 10:24:57;;;;;;;11.07;3.50;;;4.60;99.90;;;;;;4914089;29;20542;-75
2022/01/20 10:27:23;;;;;;;6.83;2.70;;;4.60;99.90;;;;;;4916259;29;20430;-73
2022/01/20 10:29:56;;;;;;;15.33;3.67;;;4.60;99.90;;;;;;4912684;29;20478;-75
2022/01/20 10:32:22;;;;;;;13.70;3.40;;;4.60;99.90;;;;;;4914591;29;20277;-77
2022/01/20 10:34:48;;;;;;;9.90;3.40;;;4.70;99.90;;;;;;4909830;29;20450;-75
2022/01/20 10:37:16;;;;;;;8.00;3.40;;;4.70;99.90;;;;;;4916570;29;20397;-75
2022/01/20 10:39:45;;;;;;;10.97;2.40;;;4.70;99.90;;;;;;4915015;29;20218;-75
2022/01/20 10:42:16;;;;;;;5.23;3.30;;;4.70;99.90;;;;;;4915032;29;20421;-74
2022/01/20 10:44:42;;;;;;;7.03;3.30;;;4.70;99.90;;;;;;4914342;29;20427;-76
2022/01/20 10:47:14;;;;;;;3.93;3.30;;;4.70;99.90;;;;;;4912694;29;20455;-75
2022/01/20 10:49:40;;;;;;;5.63;3.20;;;4.70;99.90;;;;;;4916170;29;20513;-74
2022/01/20 10:52:08;;;;;;;8.37;3.80;;;4.90;99.90;;;;;;4911943;29;20493;-75
2022/01/20 10:54:36;;;;;;;10.30;3.80;;;5.00;99.90;;;;;;4915534;29;20433;-75
2022/01/20 10:57:02;;;;;;;6.13;3.40;;;5.30;99.90;;;;;;4912464;29;20446;-75
2022/01/20 10:59:28;;;;;;;15.47;3.70;;;5.50;99.90;;;;;;4913321;29;20437;-75
2022/01/20 11:02:09;;;;;;;13.93;3.63;;;5.80;99.90;;;;;;4912797;29;20892;-74
2022/01/20 11:04:40;;;;;;;8.73;4.40;;;5.80;99.90;;;;;;4915596;29;20534;-75
2022/01/20 11:07:08;;;;;;;4.60;2.33;;;5.80;99.90;;;;;;4914002;29;20475;-75
2022/01/20 11:09:38;;;;;;;4.83;2.50;;;5.80;99.90;;;;;;4913005;29;20530;-75
2022/01/20 11:12:04;;;;;;;7.80;3.60;;;5.60;99.90;;;;;;4915322;29;21170;-73
2022/01/20 11:14:32;;;;;;;9.70;3.00;;;5.50;99.90;;;;;;4912775;29;20485;-75
2022/01/20 11:16:59;;;;;;;8.60;3.10;;;5.30;99.90;;;;;;4914820;29;20424;-75
2022/01/20 11:19:26;;;;;;;12.03;4.33;;;5.10;99.90;;;;;;4911612;29;21108;-74
2022/01/20 11:22:05;;;;;;;10.57;4.00;;;5.10;99.90;;;;;;4915492;29;20447;-74
2022/01/20 11:24:30;;;;;;;6.43;3.20;;;5.00;99.90;;;;;;4912975;29;20425;-74
2022/01/20 11:26:58;;;;;;;11.60;3.13;;;5.10;99.90;;;;;;4914953;29;20406;-74
2022/01/20 11:29:37;;;;;;;21.50;4.40;;;5.20;99.90;;;;;;4913326;29;20295;-74
2022/01/20 11:32:14;;;;;;;13.83;2.83;;;5.10;99.90;;;;;;4911541;29;20937;-75
2022/01/20 11:34:39;;;;;;;9.40;3.57;;;5.20;99.90;;;;;;4913008;29;20413;-75
2022/01/20 11:37:09;;;;;;;9.70;3.13;;;5.20;99.90;;;;;;4915677;29;20427;-74
2022/01/20 11:39:34;;;;;;;8.20;3.73;;;5.20;99.90;;;;;;4915290;29;20725;-75
2022/01/20 11:42:00;;;;;;;7.93;3.20;;;5.20;99.90;;;;;;4910627;29;20532;-75
2022/01/20 11:44:29;;;;;;;16.47;3.50;;;5.20;99.90;;;;;;4923887;29;20268;-74
2022/01/20 11:47:05;;;;;;;9.83;3.00;;;5.20;99.90;;;;;;4912174;29;20429;-75
2022/01/20 11:49:40;;;;;;;7.40;2.67;;;5.30;99.90;;;;;;4921830;29;20441;-75
2022/01/20 11:52:06;;;;;;;12.37;3.33;;;5.40;99.90;;;;;;4915979;29;20482;-75
2022/01/20 11:54:33;;;;;;;5.40;2.57;;;5.50;99.90;;;;;;4910365;29;20424;-75
2022/01/20 11:57:12;;;;;;;9.67;2.90;;;5.70;99.90;;;;;;4913109;29;20423;-73
2022/01/20 11:59:55;;;;;;;7.33;2.80;;;6.00;99.90;;;;;;4896328;29;20394;-75
2022/01/20 12:02:35;;;;;;;8.33;2.97;;;6.20;99.90;;;;;;4906593;29;20465;-74
2022/01/20 12:05:05;;;;;;;7.77;2.97;;;6.30;99.90;;;;;;4896276;29;20400;-75
2022/01/20 12:07:33;;;;;;;13.40;3.70;;;6.30;99.90;;;;;;4896973;29;20422;-73
2022/01/20 12:10:09;;;;;;;5.53;2.17;;;6.00;99.90;;;;;;4912103;29;20981;-73
2022/01/20 12:12:36;;;;;;;6.40;2.10;;;5.90;99.90;;;;;;4915220;29;20408;-75
2022/01/20 12:15:10;;;;;;;8.70;2.20;;;5.70;99.90;;;;;;4907582;29;20460;-74
2022/01/20 12:17:41;;;;;;;5.23;1.93;;;5.60;99.90;;;;;;4915100;29;20422;-75
2022/01/20 12:20:08;;;;;;;7.80;2.70;;;5.40;99.90;;;;;;4912684;29;20995;-75
2022/01/20 12:22:44;;;;;;;2.10;1.10;;;5.20;99.90;;;;;;4913577;29;20442;-75
2022/01/20 12:25:39;;;;;;;2.40;0.80;;;4.70;99.90;;;;;;4912217;29;20432;-74
2022/01/20 12:28:09;;;;;;;3.87;0.97;;;3.90;99.90;;;;;;4910284;29;20423;-74
2022/01/20 12:30:37;;;;;;;2.63;1.13;;;3.50;99.90;;;;;;4912240;29;20456;-75
2022/01/20 12:33:11;;;;;;;9.70;1.10;;;3.30;99.90;;;;;;4913519;29;20475;-75
2022/01/20 12:35:49;;;;;;;3.40;1.30;;;3.00;99.90;;;;;;4912498;29;20505;-75
2022/01/20 12:38:22;;;;;;;4.23;1.37;;;2.70;99.90;;;;;;4912648;29;20494;-75
2022/01/20 12:41:01;;;;;;;3.47;1.57;;;2.70;99.90;;;;;;4914370;29;20449;-74
2022/01/20 12:43:49;;;;;;;4.93;1.93;;;2.50;99.90;;;;;;4913195;29;20445;-74
2022/01/20 12:46:17;;;;;;;4.37;1.30;;;2.30;99.90;;;;;;4910027;29;20455;-74
2022/01/20 12:49:01;;;;;;;1.87;1.27;;;2.30;99.90;;;;;;4912445;29;20427;-74
2022/01/20 12:51:42;;;;;;;4.10;1.90;;;2.20;99.90;;;;;;4912187;29;20513;-75
2022/01/20 12:54:11;;;;;;;7.77;2.20;;;2.20;99.90;;;;;;4913013;29;20405;-73
2022/01/20 12:56:44;;;;;;;5.40;1.67;;;2.30;99.90;;;;;;4914670;29;20432;-74
2022/01/20 12:59:10;;;;;;;2.60;2.33;;;2.30;99.90;;;;;;4909786;29;20536;-74
2022/01/20 13:01:39;;;;;;;6.83;1.90;;;2.30;99.90;;;;;;4910233;29;20914;-74
2022/01/20 13:04:05;;;;;;;7.73;1.63;;;2.40;99.90;;;;;;4911010;29;20430;-73
2022/01/20 13:06:32;;;;;;;6.63;2.47;;;2.40;99.90;;;;;;4912728;29;20431;-74
2022/01/20 13:09:05;;;;;;;2.67;1.93;;;2.50;99.90;;;;;;4912236;29;20429;-72
2022/01/20 13:11:52;;;;;;;12.63;2.77;;;2.40;99.90;;;;;;4912478;29;20455;-73
2022/01/20 13:14:18;;;;;;;6.07;2.17;;;2.50;99.90;;;;;;4911985;29;20412;-74
2022/01/20 13:16:52;;;;;;;5.63;1.80;;;2.50;99.90;;;;;;4910225;29;20399;-74
2022/01/20 13:19:19;;;;;;;13.47;2.57;;;2.50;99.90;;;;;;4914221;29;20386;-74
2022/01/20 13:21:53;;;;;;;10.63;2.60;;;2.50;99.90;;;;;;4909954;29;20517;-74
2022/01/20 13:24:30;;;;;;;3.53;1.87;;;2.50;99.90;;;;;;4912933;29;20976;-73
2022/01/20 13:26:59;;;;;;;5.23;2.77;;;2.50;99.90;;;;;;4911705;29;20413;-75
2022/01/20 13:29:27;;;;;;;7.63;2.87;;;2.50;99.90;;;;;;4914003;29;21077;-74
2022/01/20 13:31:57;;;;;;;7.80;3.83;;;2.50;99.90;;;;;;4909358;29;20460;-75
2022/01/20 13:34:23;;;;;;;16.37;2.80;;;2.60;99.90;;;;;;4916627;29;20426;-74
2022/01/20 13:36:52;;;;;;;5.40;2.10;;;2.60;99.90;;;;;;4916129;29;20455;-74
2022/01/20 13:39:34;;;;;;;7.13;1.70;;;2.50;99.90;;;;;;4917301;29;20184;-74
2022/01/20 13:42:28;;;;;;;4.20;2.17;;;2.50;99.90;;;;;;4916061;29;20444;-74
2022/01/20 13:45:12;;;;;;;5.07;2.60;;;2.50;99.90;;;;;;4907671;29;20452;-74
2022/01/20 13:47:46;;;;;;;5.23;2.00;;;2.40;99.90;;;;;;4911956;29;20433;-75
2022/01/20 13:50:17;;;;;;;7.77;2.20;;;2.50;99.90;;;;;;4915438;29;20470;-74
2022/01/20 13:52:43;;;;;;;10.23;2.20;;;2.60;99.90;;;;;;4913751;29;20450;-74
2022/01/20 13:55:28;;;;;;;4.67;2.23;;;2.60;99.90;;;;;;4914743;29;20403;-74
2022/01/20 13:57:58;;;;;;;10.57;3.03;;;2.60;99.90;;;;;;4917338;29;20209;-74
2022/01/20 14:00:28;;;;;;;6.43;3.03;;;2.60;99.90;;;;;;4910911;29;20964;-74
2022/01/20 14:02:54;;;;;;;5.47;2.43;;;2.60;99.90;;;;;;4916335;29;20419;-74
2022/01/20 14:05:24;;;;;;;6.70;2.73;;;2.60;99.90;;;;;;4916479;29;20754;-74
2022/01/20 14:07:49;;;;;;;4.10;2.63;;;2.60;99.90;;;;;;4916901;29;20452;-74
2022/01/20 14:10:15;;;;;;;7.20;2.57;;;2.70;99.90;;;;;;4915233;29;20479;-74
2022/01/20 14:12:41;;;;;;;9.10;2.57;;;2.70;99.90;;;;;;4897549;29;20665;-75
2022/01/20 14:15:07;;;;;;;8.10;2.93;;;2.70;99.90;;;;;;4897926;29;20503;-74
2022/01/20 14:17:37;;;;;;;9.53;3.40;;;2.70;99.90;;;;;;4913567;29;20194;-74
2022/01/20 14:20:10;;;;;;;9.10;2.43;;;2.70;99.90;;;;;;4917042;29;20493;-74
2022/01/20 14:22:36;;;;;;;16.60;8.00;;;2.70;99.90;;;;;;4914179;29;20451;-77
2022/01/20 14:25:02;;;;;;;24.40;5.43;;;2.60;99.90;;;;;;4914987;29;20398;-74
2022/01/20 14:27:28;;;;;;;3.90;2.87;;;2.60;99.90;;;;;;4915022;29;20190;-74
2022/01/20 14:29:54;;;;;;;9.83;3.10;;;2.50;99.90;;;;;;4914076;29;20470;-74
2022/01/20 14:32:19;;;;;;;9.20;3.50;;;2.60;99.90;;;;;;4913026;29;20220;-74
2022/01/20 14:34:45;;;;;;;6.83;3.30;;;2.60;99.90;;;;;;4914884;29;20261;-74
2022/01/20 14:37:10;;;;;;;10.37;3.00;;;2.60;99.90;;;;;;4916594;29;20181;-74
2022/01/20 14:39:37;;;;;;;9.90;3.73;;;2.60;99.90;;;;;;4912631;29;20249;-74
2022/01/20 14:42:11;;;;;;;7.83;3.50;;;2.60;99.90;;;;;;4915773;29;20212;-74
2022/01/20 14:44:37;;;;;;;7.90;2.50;;;2.60;99.90;;;;;;4912676;29;20456;-74
2022/01/20 14:47:04;;;;;;;7.83;3.17;;;2.60;99.90;;;;;;4914369;29;20450;-74
2022/01/20 14:49:29;;;;;;;5.93;3.20;;;2.70;99.90;;;;;;4914372;29;20217;-74
2022/01/20 14:51:58;;;;;;;6.53;3.20;;;2.70;99.90;;;;;;4912453;29;20439;-74
2022/01/20 14:54:23;;;;;;;11.13;3.27;;;2.80;99.90;;;;;;4912739;29;20726;-74
2022/01/20 14:56:49;;;;;;;4.37;2.50;;;2.80;99.90;;;;;;4915808;29;20398;-74
2022/01/20 14:59:14;;;;;;;9.40;2.90;;;2.70;99.90;;;;;;4915925;29;20189;-74
2022/01/20 15:01:40;;;;;;;8.60;2.63;;;2.70;99.90;;;;;;4911392;29;20220;-74
2022/01/20 15:04:06;;;;;;;3.83;2.63;;;2.70;99.90;;;;;;4914665;29;20552;-75
2022/01/20 15:06:32;;;;;;;7.30;2.97;;;2.70;99.90;;;;;;4914030;29;20205;-74
2022/01/20 15:08:58;;;;;;;9.73;2.90;;;2.70;99.90;;;;;;4915974;29;20382;-75
2022/01/20 15:11:24;;;;;;;4.07;2.23;;;2.70;99.90;;;;;;4913861;29;20482;-74
2022/01/20 15:13:49;;;;;;;11.70;3.00;;;2.70;99.90;;;;;;4912661;29;20785;-74
2022/01/20 15:16:15;;;;;;;8.33;3.87;;;2.70;99.90;;;;;;4912905;29;20203;-75
2022/01/20 15:18:40;;;;;;;12.87;2.70;;;2.70;99.90;;;;;;4912646;29;20258;-74
2022/01/20 15:21:07;;;;;;;2.93;2.30;;;2.70;99.90;;;;;;4915507;29;20209;-74
2022/01/20 15:23:32;;;;;;;28.40;4.37;;;2.70;99.90;;;;;;4910861;29;20561;-74
2022/01/20 15:25:59;;;;;;;8.07;3.13;;;2.70;99.90;;;;;;4915246;29;20403;-75
2022/01/20 15:28:32;;;;;;;5.43;2.57;;;2.80;99.90;;;;;;4913939;29;20196;-72
2022/01/20 15:30:58;;;;;;;6.77;2.60;;;2.70;99.90;;;;;;4911902;29;20456;-73
2022/01/20 15:33:25;;;;;;;6.70;2.90;;;2.60;99.90;;;;;;4908959;29;20523;-74
2022/01/20 15:35:53;;;;;;;11.20;4.87;;;2.50;99.90;;;;;;4908341;29;20421;-74
2022/01/20 15:38:19;;;;;;;6.60;2.93;;;2.50;99.90;;;;;;4908000;29;20540;-73
2022/01/20 15:40:44;;;;;;;10.40;3.03;;;2.40;99.90;;;;;;4907353;29;20477;-76
2022/01/20 15:43:10;;;;;;;5.93;2.60;;;2.30;99.90;;;;;;4908704;29;20419;-74
2022/01/20 15:45:35;;;;;;;8.13;3.00;;;2.30;99.90;;;;;;4909892;29;20904;-75
2022/01/20 15:48:01;;;;;;;7.83;3.73;;;2.20;99.90;;;;;;4910158;29;20196;-75
2022/01/20 15:50:27;;;;;;;5.03;3.20;;;2.20;99.90;;;;;;4911716;29;20252;-74
2022/01/20 15:52:52;;;;;;;8.77;2.60;;;2.10;99.90;;;;;;4911162;29;20205;-74
2022/01/20 15:55:18;;;;;;;3.00;2.77;;;2.10;99.90;;;;;;4910344;29;20193;-72
2022/01/20 15:57:43;;;;;;;9.50;2.10;;;2.00;99.90;;;;;;4914287;29;20183;-76
2022/01/20 16:00:12;;;;;;;8.90;3.57;;;2.00;99.90;;;;;;4909635;29;20259;-75
2022/01/20 16:02:40;;;;;;;19.73;6.90;;;2.00;99.90;;;;;;4913916;29;20215;-73
2022/01/20 16:05:05;;;;;;;5.43;3.23;;;2.00;99.90;;;;;;4911617;29;20436;-74
2022/01/20 16:07:31;;;;;;;8.57;3.17;;;2.00;99.90;;;;;;4908307;29;20926;-73
2022/01/20 16:09:57;;;;;;;3.60;2.63;;;2.00;99.90;;;;;;4914004;29;20206;-75
2022/01/20 16:12:23;;;;;;;4.10;3.03;;;2.00;99.90;;;;;;4912156;29;20284;-74
2022/01/20 16:14:48;;;;;;;3.00;1.63;;;2.00;99.90;;;;;;4913470;29;20840;-74
2022/01/20 16:17:14;;;;;;;11.30;2.23;;;2.00;99.90;;;;;;4910571;29;20249;-74
2022/01/20 16:19:39;;;;;;;5.43;1.80;;;1.90;99.90;;;;;;4914595;29;20174;-74
2022/01/20 16:22:05;;;;;;;6.47;1.80;;;1.90;99.90;;;;;;4912836;29;20258;-75
2022/01/20 16:24:31;;;;;;;11.57;2.40;;;1.80;99.90;;;;;;4914067;29;20182;-74
2022/01/20 16:26:56;;;;;;;4.97;1.60;;;1.70;99.90;;;;;;4912759;29;20218;-74
2022/01/20 16:29:23;;;;;;;6.60;2.00;;;1.70;99.90;;;;;;4912326;29;20327;-74
2022/01/20 16:31:49;;;;;;;8.53;1.57;;;1.60;99.90;;;;;;4911847;29;20445;-74
2022/01/20 16:34:15;;;;;;;4.93;2.30;;;1.60;99.90;;;;;;4911398;29;20860;-73
2022/01/20 16:36:41;;;;;;;7.60;1.97;;;1.50;99.90;;;;;;4914394;29;20418;-75
2022/01/20 16:39:07;;;;;;;6.40;1.83;;;1.40;99.90;;;;;;4910487;29;20188;-74
2022/01/20 16:41:32;;;;;;;5.43;2.00;;;1.40;99.90;;;;;;4914682;29;20446;-74
2022/01/20 16:43:59;;;;;;;5.80;2.17;;;1.40;99.90;;;;;;4911324;29;20762;-74
2022/01/20 16:46:25;;;;;;;2.50;1.73;;;1.40;99.90;;;;;;4911964;29;20194;-74
2022/01/20 16:48:51;;;;;;;3.73;2.50;;;1.40;99.90;;;;;;4911092;29;20428;-74
2022/01/20 16:51:17;;;;;;;6.43;1.80;;;1.30;99.90;;;;;;4911577;29;20473;-74
2022/01/20 16:53:43;;;;;;;7.20;2.60;;;1.30;99.90;;;;;;4908317;29;20191;-74
2022/01/20 16:56:10;;;;;;;2.80;2.33;;;1.30;99.90;;;;;;4912048;29;20511;-75
2022/01/20 16:58:35;;;;;;;4.00;1.93;;;1.20;99.90;;;;;;4914080;29;20484;-75
2022/01/20 17:01:02;;;;;;;7.50;2.77;;;1.20;99.90;;;;;;4907634;29;21022;-72
2022/01/20 17:03:28;;;;;;;3.17;1.70;;;1.20;99.90;;;;;;4911576;29;20182;-74
2022/01/20 17:05:54;;;;;;;4.23;2.90;;;1.10;99.90;;;;;;4912103;29;20445;-74
2022/01/20 17:08:21;;;;;;;3.73;2.53;;;1.20;99.90;;;;;;4913082;29;20389;-74
2022/01/20 17:10:47;;;;;;;6.70;2.50;;;1.20;99.90;;;;;;4912599;29;20441;-73
2022/01/20 17:13:13;;;;;;;8.33;2.17;;;1.30;99.90;;;;;;4909505;29;21007;-74
2022/01/20 17:15:39;;;;;;;14.30;3.80;;;1.30;99.90;;;;;;4911477;29;20503;-73
2022/01/20 17:18:05;;;;;;;11.47;2.70;;;1.40;99.90;;;;;;4912502;29;20564;-74
2022/01/20 17:20:31;;;;;;;4.20;2.07;;;1.40;99.90;;;;;;4914135;29;20429;-71
2022/01/20 17:22:57;;;;;;;9.43;2.87;;;1.50;99.90;;;;;;4909459;29;20451;-74
2022/01/20 17:25:23;;;;;;;7.30;3.10;;;1.50;99.90;;;;;;4912782;29;20206;-73
2022/01/20 17:27:49;;;;;;;10.73;2.67;;;1.70;99.90;;;;;;4912447;29;20193;-74
2022/01/20 17:30:16;;;;;;;5.80;2.13;;;1.70;99.90;;;;;;4911974;29;20458;-74
2022/01/20 17:32:41;;;;;;;11.30;2.20;;;1.80;99.90;;;;;;4912025;29;20444;-74
2022/01/20 17:35:09;;;;;;;7.70;2.40;;;1.90;99.90;;;;;;4908880;29;20947;-74
2022/01/20 17:37:34;;;;;;;11.20;2.00;;;1.90;99.90;;;;;;4914146;29;20250;-74
2022/01/20 17:40:00;;;;;;;4.87;1.90;;;1.90;99.90;;;;;;4911730;29;20604;-74
2022/01/20 17:42:25;;;;;;;10.57;3.10;;;1.90;99.90;;;;;;4913507;29;20201;-74
2022/01/20 17:44:51;;;;;;;8.60;2.67;;;1.90;99.90;;;;;;4909811;29;20190;-73
2022/01/20 17:47:17;;;;;;;5.87;3.10;;;1.90;99.90;;;;;;4910947;29;20225;-74
2022/01/20 17:49:42;;;;;;;9.73;2.30;;;1.90;99.90;;;;;;4912826;29;20198;-74
2022/01/20 17:52:08;;;;;;;15.43;3.07;;;1.90;99.90;;;;;;4906663;29;20213;-75
2022/01/20 17:54:34;;;;;;;5.00;2.10;;;1.90;99.90;;;;;;4911566;29;20193;-74